Time;durP1;ratioP1;P1;durP2;ratioP2;P2;SDS_P1;SDS_P2;PMS_P1;PMS_P2;Temp;Humidity;BMP_temperature;BMP_pressure;BME280_temperature;BME280_humidity;BME280_pressure;Samples;Min_cycle;Max_cycle;Signal;HPM_P1;HPM_P2
2021/12/24 00:01:56;;;;;;;16.83;10.63;;;;;;;8.14;56.80;98616.97;5091414;28;20012;-50
2021/12/24 00:04:22;;;;;;;14.80;9.88;;;;;;;8.18;56.99;98614.81;5091402;28;20105;-52
2021/12/24 00:06:50;;;;;;;14.15;10.02;;;;;;;8.16;56.83;98614.97;5090018;28;20028;-51
2021/12/24 00:09:22;;;;;;;13.32;9.48;;;;;;;8.22;57.21;98612.63;5090028;28;20055;-51
2021/12/24 00:11:49;;;;;;;17.45;10.32;;;;;;;8.10;57.15;98597.44;5092894;28;20027;-51
2021/12/24 00:14:15;;;;;;;17.50;9.15;;;;;;;8.17;57.22;98594.91;5095021;28;20428;-51
2021/12/24 00:16:46;;;;;;;19.25;9.85;;;;;;;8.10;56.84;98594.81;5093610;28;20403;-51
2021/12/24 00:37:35;;;;;;;27.70;17.38;;;;;;;8.76;58.83;98544.88;5094560;28;20060;-51
2021/12/24 00:40:17;;;;;;;16.55;11.90;;;;;;;9.05;57.28;98537.00;5094513;28;20528;-49
2021/12/24 00:42:47;;;;;;;25.30;11.23;;;;;;;9.26;56.55;98542.13;5094577;28;20032;-51
2021/12/24 00:45:27;;;;;;;12.25;8.07;;;;;;;9.26;55.83;98541.34;5093111;28;20081;-51
2021/12/24 00:47:54;;;;;;;14.05;9.25;;;;;;;9.12;56.05;98535.22;5093091;28;20115;-51
2021/12/24 00:50:25;;;;;;;14.98;8.77;;;;;;;9.06;56.06;98539.41;5093012;28;20024;-51
2021/12/24 00:52:57;;;;;;;10.45;8.77;;;;;;;8.77;55.57;98538.66;5094343;28;20416;-48
2021/12/24 00:55:26;;;;;;;14.88;10.30;;;;;;;8.27;56.25;98524.81;5092962;28;20136;-51
2021/12/24 00:57:54;;;;;;;13.38;9.40;;;;;;;7.82;57.83;98520.78;5094102;28;20394;-48
2021/12/24 01:00:27;;;;;;;12.35;8.50;;;;;;;7.40;59.15;98529.22;5094124;28;20028;-48
2021/12/24 01:02:54;;;;;;;14.77;9.05;;;;;;;7.23;59.66;98527.78;5094146;28;20101;-48
2021/12/24 01:05:22;;;;;;;13.07;8.73;;;;;;;7.15;59.69;98527.91;5094026;28;20024;-49
2021/12/24 01:07:49;;;;;;;14.85;11.07;;;;;;;7.15;59.96;98525.28;5094033;28;20036;-49
2021/12/24 01:10:19;;;;;;;19.83;9.82;;;;;;;7.30;60.61;98514.81;5094225;28;20020;-48
2021/12/24 01:12:45;;;;;;;16.88;11.10;;;;;;;7.50;60.84;98520.25;5093975;28;20114;-51
2021/12/24 01:15:13;;;;;;;16.77;9.35;;;;;;;7.69;60.13;98516.25;5093843;28;20024;-51
2021/12/24 01:17:52;;;;;;;13.10;8.38;;;;;;;7.80;60.08;98527.00;5093745;28;20577;-51
2021/12/24 01:20:37;;;;;;;12.65;9.25;;;;;;;7.60;59.75;98516.34;5093813;28;20024;-51
2021/12/24 01:25:48;;;;;;;148.30;116.72;;;;;;;7.70;59.04;98495.16;5093727;28;20032;-51
2021/12/24 01:39:04;;;;;;;12.43;9.30;;;;;;;7.12;60.08;98487.31;5093321;28;20031;-51
2021/12/24 01:44:14;;;;;;;9.93;8.23;;;;;;;7.12;60.15;98474.28;5093563;28;20027;-50
2021/12/24 01:46:40;;;;;;;22.23;11.88;;;;;;;7.16;61.56;98466.88;5091945;28;20036;-51
2021/12/24 01:49:06;;;;;;;14.32;9.93;;;;;;;7.74;60.79;98453.78;5093172;28;20153;-51
2021/12/24 01:51:32;;;;;;;13.30;9.57;;;;;;;8.04;58.57;98446.59;5093180;28;20035;-51
2021/12/24 01:53:57;;;;;;;23.58;11.75;;;;;;;8.24;58.51;98451.16;5093110;28;20032;-51
2021/12/24 01:56:23;;;;;;;18.35;11.07;;;;;;;8.40;58.28;98441.22;5093045;28;20020;-51
2021/12/24 01:58:49;;;;;;;18.10;9.85;;;;;;;8.39;57.85;98433.56;5092952;28;20043;-51
2021/12/24 02:01:15;;;;;;;17.95;9.75;;;;;;;8.45;58.05;98442.47;5092995;28;20024;-51
2021/12/24 02:03:40;;;;;;;14.85;9.85;;;;;;;8.63;57.52;98439.34;5092946;28;20406;-51
2021/12/24 02:06:06;;;;;;;12.70;9.38;;;;;;;8.78;57.43;98440.03;5092900;28;20035;-51
2021/12/24 02:08:32;;;;;;;18.77;10.70;;;;;;;8.90;56.51;98442.91;5092790;28;20447;-51
2021/12/24 02:10:58;;;;;;;21.33;11.27;;;;;;;9.05;57.19;98435.69;5091487;28;20236;-51
2021/12/24 02:13:24;;;;;;;16.50;9.95;;;;;;;9.49;56.65;98437.00;5092791;28;20507;-51
2021/12/24 02:29:16;;;;;;;15.07;9.45;;;;;;;8.34;56.60;98421.06;5092536;28;20043;-51
2021/12/24 02:31:43;;;;;;;12.57;9.40;;;;;;;8.03;56.65;98424.09;5090906;28;20406;-51
2021/12/24 02:34:09;;;;;;;13.35;8.57;;;;;;;7.63;57.96;98426.38;5092326;28;20431;-52
2021/12/24 02:36:35;;;;;;;15.20;9.45;;;;;;;7.46;58.42;98436.25;5092401;28;20149;-51
2021/12/24 02:39:01;;;;;;;12.10;8.68;;;;;;;7.35;58.65;98439.38;5092533;28;20488;-51
2021/12/24 02:41:27;;;;;;;13.55;8.18;;;;;;;7.33;58.37;98450.00;5092240;28;20096;-51
2021/12/24 02:43:52;;;;;;;14.20;8.57;;;;;;;7.52;58.95;98447.75;5092269;28;20474;-52
2021/12/24 02:46:53;;;;;;;11.40;8.05;;;;;;;7.80;58.84;98447.81;5092127;28;20031;-51
2021/12/24 02:53:55;;;;;;;12.52;9.48;;;;;;;7.82;58.35;98440.59;5091350;28;20224;-50
2021/12/24 02:54:49;;;;;;;16.88;9.18;;;;;;;7.83;57.64;98436.19;5092410;28;20464;-51
2021/12/24 02:57:16;;;;;;;11.23;8.50;;;;;;;8.07;57.37;98442.78;5090659;28;20020;-51
2021/12/24 02:59:57;;;;;;;14.52;9.48;;;;;;;8.21;56.16;98444.53;5092386;28;20052;-51
2021/12/24 03:02:23;;;;;;;15.38;9.20;;;;;;;7.99;55.85;98441.94;5091985;28;20031;-51
2021/12/24 03:04:49;;;;;;;17.25;10.90;;;;;;;7.89;56.34;98435.44;5092036;28;20050;-50
2021/12/24 03:07:15;;;;;;;14.48;8.95;;;;;;;7.91;56.66;98434.25;5090558;28;20052;-51
2021/12/24 03:09:41;;;;;;;17.13;14.32;;;;;;;7.80;56.49;98442.59;5091913;28;20089;-50
2021/12/24 03:12:07;;;;;;;17.40;12.40;;;;;;;7.70;56.71;98442.91;5091905;28;20043;-51
2021/12/24 03:14:32;;;;;;;14.57;10.38;;;;;;;7.54;56.69;98443.16;5091880;28;20069;-51
2021/12/24 03:17:01;;;;;;;15.52;10.85;;;;;;;7.28;57.14;98444.50;5091775;28;20103;-51
2021/12/24 03:19:30;;;;;;;17.80;10.20;;;;;;;7.15;57.75;98441.78;5091876;28;20044;-51
2021/12/24 03:22:01;;;;;;;17.40;8.40;;;;;;;7.33;58.33;98441.38;5091789;28;20069;-51
2021/12/24 03:26:55;;;;;;;14.48;8.45;;;;;;;7.57;58.15;98437.59;5091777;28;20348;-51
2021/12/24 03:29:21;;;;;;;15.15;8.45;;;;;;;7.58;58.22;98431.34;5091700;28;20485;-50
2021/12/24 03:31:48;;;;;;;15.48;9.32;;;;;;;7.56;58.33;98420.28;5091484;28;20390;-51
2021/12/24 03:34:20;;;;;;;15.98;9.85;;;;;;;7.48;58.70;98408.16;5091771;28;20031;-50
2021/12/24 03:36:47;;;;;;;13.80;10.38;;;;;;;7.47;58.63;98416.19;5091696;28;20032;-51
2021/12/24 03:39:14;;;;;;;15.82;10.80;;;;;;;7.46;59.61;98398.91;5091566;28;20401;-51
2021/12/24 03:41:40;;;;;;;13.52;8.98;;;;;;;7.47;59.83;98383.06;5091640;28;20077;-51
2021/12/24 03:44:09;;;;;;;12.43;7.93;;;;;;;7.68;61.42;98381.41;5090316;28;20436;-51
2021/12/24 03:46:59;;;;;;;9.98;6.47;;;;;;;7.78;62.49;98385.31;5092860;28;20103;-51
2021/12/24 03:54:57;;;;;;;9.50;5.23;;;;;;;8.26;63.28;98368.94;5095822;28;20034;-51
2021/12/24 03:57:25;;;;;;;13.93;7.63;;;;;;;8.26;63.33;98368.13;5095367;28;20740;-51
2021/12/24 03:59:51;;;;;;;10.27;7.63;;;;;;;8.30;62.15;98366.75;5093997;28;20028;-51
2021/12/24 04:02:17;;;;;;;12.82;7.80;;;;;;;8.37;61.53;98357.94;5095242;28;20035;-51
2021/12/24 04:04:42;;;;;;;9.23;5.20;;;;;;;8.39;62.06;98345.47;5093905;28;20021;-51
2021/12/24 04:07:08;;;;;;;14.40;8.02;;;;;;;8.35;63.21;98341.63;5095204;28;20424;-52
2021/12/24 04:09:36;;;;;;;12.13;7.40;;;;;;;8.41;64.77;98332.25;5095081;28;20016;-51
2021/12/24 04:12:03;;;;;;;11.93;5.28;;;;;;;8.54;64.58;98328.88;5095105;28;20112;-52
2021/12/24 04:14:28;;;;;;;8.40;4.05;;;;;;;8.54;64.49;98318.41;5095027;28;20039;-51
2021/12/24 04:16:54;;;;;;;6.97;3.95;;;;;;;8.59;63.77;98321.22;5093657;28;20393;-51
2021/12/24 04:19:36;;;;;;;7.38;4.75;;;;;;;8.54;63.80;98319.19;5094879;28;20032;-51
2021/12/24 04:24:55;;;;;;;7.05;4.53;;;;;;;8.28;63.79;98313.84;5095213;28;20026;-52
2021/12/24 04:27:26;;;;;;;8.25;5.15;;;;;;;8.16;64.15;98322.22;5094858;28;20162;-52
2021/12/24 04:30:02;;;;;;;8.57;5.13;;;;;;;8.19;64.07;98331.50;5094780;28;20496;-50
2021/12/24 04:32:56;;;;;;;8.73;5.25;;;;;;;8.34;63.96;98339.22;5094489;28;20044;-51
2021/12/24 04:35:41;;;;;;;9.55;5.57;;;;;;;8.38;61.88;98340.44;5094239;28;20043;-51
2021/12/24 04:38:22;;;;;;;14.95;9.60;;;;;;;8.27;62.06;98347.03;5094324;28;20445;-51
2021/12/24 04:51:58;;;;;;;10.82;6.75;;;;;;;8.10;59.25;98330.03;5094601;28;20039;-50
2021/12/24 05:02:54;;;;;;;9.23;7.05;;;;;;;7.78;57.93;98325.22;5094476;28;20401;-51
2021/12/24 05:06:06;;;;;;;9.02;6.47;;;;;;;7.71;58.05;98326.19;5094139;28;20024;-51
2021/12/24 05:10:38;;;;;;;11.32;6.82;;;;;;;7.46;58.72;98317.97;5093949;28;20520;-51
2021/12/24 05:13:06;;;;;;;11.23;7.50;;;;;;;7.52;59.11;98315.41;5093928;28;20012;-51
2021/12/24 05:15:36;;;;;;;13.88;7.88;;;;;;;7.66;58.58;98312.88;5093932;28;20482;-51
2021/12/24 05:23:15;;;;;;;17.25;8.02;;;;;;;8.52;57.81;98339.50;5093773;28;20031;-51
2021/12/24 05:25:44;;;;;;;12.43;7.65;;;;;;;8.50;56.74;98343.34;5093643;28;20020;-52
2021/12/24 05:28:10;;;;;;;10.95;8.02;;;;;;;8.49;56.67;98347.75;5092293;28;20031;-51
2021/12/24 05:30:37;;;;;;;16.02;8.15;;;;;;;8.46;55.99;98348.13;5093622;28;20028;-51
2021/12/24 05:33:03;;;;;;;18.10;8.20;;;;;;;8.51;55.94;98348.38;5093259;28;20536;-51
2021/12/24 05:35:29;;;;;;;17.40;9.00;;;;;;;8.66;56.04;98343.00;5093501;28;20020;-51
2021/12/24 05:37:54;;;;;;;14.05;8.32;;;;;;;8.84;55.79;98339.81;5093375;28;20027;-52
2021/12/24 05:40:20;;;;;;;17.52;9.48;;;;;;;8.92;55.03;98338.84;5093389;28;20020;-51
2021/12/24 05:42:46;;;;;;;12.48;8.50;;;;;;;8.75;54.85;98347.06;5093338;28;20030;-52
2021/12/24 05:45:12;;;;;;;17.25;9.98;;;;;;;8.58;54.94;98341.34;5092005;28;20046;-51
2021/12/24 05:47:37;;;;;;;11.93;7.72;;;;;;;8.57;54.92;98341.53;5093245;28;20023;-51
2021/12/24 05:50:05;;;;;;;17.85;8.38;;;;;;;8.72;55.48;98350.06;5093159;28;20172;-51
2021/12/24 05:52:32;;;;;;;18.60;9.30;;;;;;;9.09;55.21;98353.16;5093196;28;20082;-52
2021/12/24 05:54:58;;;;;;;17.35;9.93;;;;;;;9.51;54.34;98364.28;5093167;28;20012;-51
2021/12/24 05:57:27;;;;;;;15.57;7.90;;;;;;;9.67;53.68;98362.28;5092944;28;20508;-51
2021/12/24 05:59:53;;;;;;;18.27;10.07;;;;;;;9.78;52.62;98361.69;5093023;28;20490;-51
2021/12/24 06:02:19;;;;;;;11.50;9.13;;;;;;;9.44;50.33;98366.09;5091660;28;20070;-51
2021/12/24 06:04:44;;;;;;;12.15;8.40;;;;;;;8.70;51.88;98364.34;5092961;28;20048;-52
2021/12/24 06:07:10;;;;;;;10.15;7.80;;;;;;;8.38;53.16;98377.84;5092817;28;20055;-51
2021/12/24 06:09:36;;;;;;;10.98;7.53;;;;;;;8.34;53.64;98371.38;5092596;28;20032;-51
2021/12/24 06:12:02;;;;;;;14.13;8.65;;;;;;;8.30;53.76;98359.69;5092759;28;20026;-51
2021/12/24 06:14:28;;;;;;;11.25;8.48;;;;;;;8.20;53.92;98349.59;5092780;28;20055;-51
2021/12/24 06:17:02;;;;;;;15.55;9.10;;;;;;;7.92;54.23;98349.63;5092689;28;20484;-51
2021/12/24 06:19:28;;;;;;;12.77;9.05;;;;;;;7.65;54.11;98351.25;5092697;28;20032;-51
2021/12/24 06:21:58;;;;;;;13.88;8.60;;;;;;;7.52;55.20;98351.94;5092589;28;20091;-51
2021/12/24 06:24:24;;;;;;;17.20;9.40;;;;;;;7.77;55.90;98351.56;5092574;28;20028;-51
2021/12/24 06:26:51;;;;;;;14.00;9.00;;;;;;;8.01;54.50;98355.53;5092497;28;20020;-51
2021/12/24 06:29:17;;;;;;;12.35;9.55;;;;;;;7.94;53.70;98362.50;5092795;28;20028;-51
2021/12/24 06:31:43;;;;;;;15.98;9.55;;;;;;;7.97;54.52;98359.53;5092226;28;20105;-51
2021/12/24 06:34:10;;;;;;;17.58;10.00;;;;;;;8.29;54.81;98346.81;5091168;28;20032;-51
2021/12/24 06:36:40;;;;;;;15.05;8.93;;;;;;;8.67;52.57;98349.03;5091072;28;20048;-51
2021/12/24 06:39:06;;;;;;;18.90;9.60;;;;;;;8.53;52.56;98348.16;5092575;28;20016;-51
2021/12/24 06:41:33;;;;;;;17.65;11.02;;;;;;;8.41;52.59;98353.16;5092256;28;20055;-52
2021/12/24 06:44:00;;;;;;;13.20;9.50;;;;;;;8.20;52.46;98346.19;5092241;28;20073;-51
2021/12/24 06:46:26;;;;;;;15.07;9.25;;;;;;;8.03;53.10;98352.69;5092213;28;20039;-51
2021/12/24 06:48:56;;;;;;;14.30;9.95;;;;;;;7.98;53.66;98351.47;5092217;28;20028;-51
2021/12/24 06:51:25;;;;;;;10.52;7.93;;;;;;;8.16;52.75;98342.34;5092373;28;20052;-51
2021/12/24 06:53:50;;;;;;;12.25;8.23;;;;;;;8.07;52.47;98333.84;5092163;28;20031;-51
2021/12/24 06:56:17;;;;;;;14.27;7.45;;;;;;;7.85;53.60;98342.75;5092027;28;20024;-51
2021/12/24 06:58:43;;;;;;;15.75;9.18;;;;;;;8.03;52.89;98337.84;5091974;28;20030;-51
2021/12/24 07:01:09;;;;;;;26.95;19.23;;;;;;;8.12;52.72;98325.44;5092068;28;20370;-51
2021/12/24 07:03:34;;;;;;;14.27;9.77;;;;;;;8.11;52.48;98321.19;5092016;28;20125;-52
2021/12/24 07:06:00;;;;;;;14.43;8.40;;;;;;;8.07;52.78;98309.50;5091959;28;20036;-52
2021/12/24 07:08:26;;;;;;;12.73;9.15;;;;;;;7.91;53.39;98305.44;5091997;28;20099;-51
2021/12/24 07:10:52;;;;;;;11.70;9.30;;;;;;;7.62;53.58;98301.22;5091948;28;20077;-51
2021/12/24 07:13:18;;;;;;;15.68;9.35;;;;;;;7.34;54.42;98304.63;5091915;28;20024;-49
2021/12/24 07:15:44;;;;;;;13.15;8.70;;;;;;;7.19;54.86;98308.13;5091922;28;20104;-49
2021/12/24 07:18:10;;;;;;;16.63;8.95;;;;;;;7.40;56.40;98312.53;5091755;28;20028;-48
2021/12/24 07:20:36;;;;;;;24.27;11.25;;;;;;;7.73;57.97;98317.16;5091824;28;20532;-51
2021/12/24 07:23:02;;;;;;;19.77;10.32;;;;;;;8.04;57.45;98313.31;5095836;28;20024;-51
2021/12/24 07:25:28;;;;;;;18.65;10.38;;;;;;;8.44;58.13;98316.16;5096058;28;20023;-51
2021/12/24 07:27:53;;;;;;;22.73;12.00;;;;;;;8.86;56.31;98322.13;5094762;28;20020;-52
2021/12/24 07:30:20;;;;;;;27.25;13.70;;;;;;;9.11;54.82;98317.09;5095979;28;20387;-52
2021/12/24 07:32:46;;;;;;;27.58;13.52;;;;;;;9.41;53.74;98306.25;5094383;28;20122;-51
2021/12/24 07:35:12;;;;;;;23.80;12.15;;;;;;;9.56;52.96;98308.69;5095798;28;20032;-51
2021/12/24 07:37:39;;;;;;;11.80;8.38;;;;;;;9.70;51.55;98309.44;5095801;28;20090;-51
2021/12/24 07:40:06;;;;;;;13.40;9.20;;;;;;;9.27;51.32;98300.19;5095761;28;20012;-52
2021/12/24 07:42:33;;;;;;;13.93;8.80;;;;;;;8.73;51.99;98299.34;5094386;28;20032;-51
2021/12/24 07:44:59;;;;;;;13.80;9.88;;;;;;;8.35;52.90;98291.97;5095676;28;20031;-51
2021/12/24 07:47:31;;;;;;;14.40;8.95;;;;;;;8.36;52.91;98293.56;5095613;28;20028;-51
2021/12/24 07:50:15;;;;;;;12.10;9.00;;;;;;;8.30;52.81;98304.00;5095653;28;20024;-51
2021/12/24 07:52:42;;;;;;;12.15;8.15;;;;;;;8.31;53.60;98302.97;5094200;28;20032;-51
2021/12/24 07:55:10;;;;;;;13.80;7.68;;;;;;;8.40;54.15;98293.97;5095449;28;20028;-51
2021/12/24 07:57:37;;;;;;;11.90;7.50;;;;;;;8.70;53.38;98302.34;5095284;28;20032;-51
2021/12/24 08:00:08;;;;;;;17.05;7.95;;;;;;;8.98;53.05;98277.84;5094100;28;20035;-51
2021/12/24 08:02:34;;;;;;;19.00;8.98;;;;;;;9.48;53.14;98287.94;5095304;28;20024;-51
2021/12/24 08:05:00;;;;;;;15.52;7.95;;;;;;;9.96;51.80;98285.81;5095318;28;20027;-51
2021/12/24 08:07:27;;;;;;;18.98;11.25;;;;;;;10.16;51.05;98282.31;5095196;28;20023;-51
2021/12/24 08:09:53;;;;;;;14.32;8.25;;;;;;;10.47;50.61;98280.81;5095226;28;20024;-51
2021/12/24 08:12:22;;;;;;;13.13;8.25;;;;;;;10.56;51.31;98282.19;5095129;28;20478;-52
2021/12/24 08:14:48;;;;;;;12.70;7.60;;;;;;;10.53;52.41;98279.97;5095111;28;20020;-52
2021/12/24 08:17:16;;;;;;;12.00;8.05;;;;;;;10.45;53.55;98262.66;5094902;28;20020;-51
2021/12/24 08:19:42;;;;;;;11.23;8.07;;;;;;;10.51;57.03;98267.06;5094946;28;20027;-51
2021/12/24 08:22:10;;;;;;;13.30;8.77;;;;;;;10.43;53.34;98263.91;5093570;28;20024;-50
2021/12/24 08:24:37;;;;;;;15.20;8.90;;;;;;;10.11;53.92;98277.69;5094881;28;20497;-52
2021/12/24 08:27:03;;;;;;;302.63;197.10;;;;;;;10.18;53.01;98280.28;5094843;28;20027;-51
2021/12/24 08:29:29;;;;;;;117.75;81.35;;;;;;;10.35;53.61;98278.06;5094780;28;20066;-51
2021/12/24 08:31:56;;;;;;;31.67;22.42;;;;;;;10.61;52.82;98279.75;5092686;28;20064;-51
2021/12/24 08:34:22;;;;;;;48.10;23.30;;;;;;;10.74;52.99;98279.66;5093421;28;20040;-52
2021/12/24 08:36:51;;;;;;;18.40;11.50;;;;;;;10.90;52.21;98273.09;5094683;28;20016;-52
2021/12/24 08:39:19;;;;;;;20.85;10.38;;;;;;;10.93;51.62;98269.25;5094489;28;20016;-49
2021/12/24 08:41:46;;;;;;;15.15;9.13;;;;;;;10.61;51.67;98266.63;5094556;28;20039;-49
2021/12/24 08:44:12;;;;;;;15.80;10.10;;;;;;;10.31;52.12;98261.13;5094455;28;20078;-51
2021/12/24 08:46:38;;;;;;;18.35;10.15;;;;;;;9.75;53.64;98250.19;5094504;28;20455;-51
2021/12/24 08:49:05;;;;;;;18.75;10.65;;;;;;;9.52;54.57;98245.41;5094408;28;20023;-51
2021/12/24 08:51:31;;;;;;;15.93;9.65;;;;;;;9.54;55.54;98247.81;5093071;28;20115;-51
2021/12/24 08:53:57;;;;;;;18.08;8.80;;;;;;;9.91;55.75;98256.00;5094393;28;20119;-52
2021/12/24 08:56:23;;;;;;;12.60;8.82;;;;;;;10.25;54.42;98261.94;5092938;28;20020;-51
2021/12/24 08:58:50;;;;;;;13.38;8.23;;;;;;;10.46;54.46;98258.22;5094226;28;20092;-51
2021/12/24 09:01:16;;;;;;;18.13;9.18;;;;;;;10.50;53.78;98270.72;5094189;28;20016;-51
2021/12/24 09:03:42;;;;;;;18.50;9.15;;;;;;;10.63;53.56;98266.41;5094191;28;20024;-51
2021/12/24 09:06:08;;;;;;;10.90;7.38;;;;;;;10.67;53.24;98264.97;5092749;28;20027;-51
2021/12/24 09:08:35;;;;;;;18.83;9.00;;;;;;;10.59;53.16;98272.06;5094052;28;20128;-51
2021/12/24 09:11:02;;;;;;;11.40;7.88;;;;;;;10.62;53.17;98272.66;5094041;28;20075;-52
2021/12/24 09:13:29;;;;;;;21.42;7.53;;;;;;;10.79;52.91;98279.03;5093978;28;20020;-51
2021/12/24 09:15:55;;;;;;;11.75;7.82;;;;;;;10.91;52.27;98266.84;5093894;28;20099;-51
2021/12/24 09:18:21;;;;;;;14.50;8.43;;;;;;;10.68;52.42;98259.50;5092470;28;20119;-52
2021/12/24 09:20:47;;;;;;;20.30;8.18;;;;;;;10.64;53.82;98244.38;5092508;28;20493;-51
2021/12/24 09:23:14;;;;;;;20.23;10.48;;;;;;;10.75;53.39;98235.84;5092451;28;20021;-52
2021/12/24 09:25:40;;;;;;;11.50;8.65;;;;;;;10.62;54.80;98235.94;5093706;28;20020;-51
2021/12/24 09:28:07;;;;;;;14.40;9.93;;;;;;;10.45;55.43;98235.63;5093740;28;20089;-48
2021/12/24 09:30:34;;;;;;;12.63;7.70;;;;;;;10.53;56.07;98238.81;5093622;28;20103;-51
2021/12/24 09:33:00;;;;;;;13.05;7.18;;;;;;;10.78;56.36;98244.13;5091989;28;20514;-51
2021/12/24 09:35:27;;;;;;;21.63;9.65;;;;;;;10.97;55.70;98246.81;5093511;28;20019;-52
2021/12/24 09:37:54;;;;;;;16.52;8.70;;;;;;;11.11;54.97;98240.44;5093416;28;20040;-51
2021/12/24 09:40:20;;;;;;;15.00;8.30;;;;;;;11.37;53.63;98242.03;5093425;28;20027;-51
2021/12/24 09:42:47;;;;;;;17.30;8.68;;;;;;;11.53;53.27;98234.59;5093383;28;20028;-51
2021/12/24 09:45:14;;;;;;;10.70;7.35;;;;;;;11.65;53.92;98247.81;5092453;28;20522;-51
2021/12/24 09:47:40;;;;;;;15.60;8.20;;;;;;;11.77;53.79;98233.75;5093319;28;20032;-51
2021/12/24 09:50:08;;;;;;;16.25;8.35;;;;;;;12.00;53.67;98237.56;5091928;28;20405;-49
2021/12/24 09:52:37;;;;;;;12.63;7.70;;;;;;;11.87;53.26;98237.66;5093214;28;20031;-52
2021/12/24 09:55:13;;;;;;;17.10;8.57;;;;;;;11.84;53.61;98231.03;5093088;28;20027;-51
2021/12/24 09:57:39;;;;;;;17.30;9.40;;;;;;;12.18;52.23;98237.53;5091795;28;20505;-52
2021/12/24 10:00:07;;;;;;;14.77;8.73;;;;;;;12.09;52.60;98224.91;5093088;28;20021;-51
2021/12/24 10:02:43;;;;;;;13.10;7.10;;;;;;;12.07;52.67;98224.31;5091650;28;20020;-52
2021/12/24 10:05:41;;;;;;;14.50;8.10;;;;;;;12.06;52.74;98228.00;5093008;28;20020;-52
2021/12/24 10:08:11;;;;;;;12.02;6.40;;;;;;;12.15;53.38;98234.53;5091644;28;20486;-52
2021/12/24 10:10:42;;;;;;;17.83;7.32;;;;;;;12.18;52.86;98229.66;5092851;28;20024;-52
2021/12/24 10:13:29;;;;;;;17.70;7.70;;;;;;;12.14;52.30;98225.84;5092843;28;20101;-52
2021/12/24 10:16:05;;;;;;;15.23;7.82;;;;;;;12.13;51.91;98224.25;5091418;28;20056;-52
2021/12/24 10:18:43;;;;;;;14.43;9.05;;;;;;;12.14;52.45;98225.06;5092669;28;20032;-51
2021/12/24 10:21:19;;;;;;;16.85;8.77;;;;;;;12.16;51.87;98221.16;5092714;28;20024;-52
2021/12/24 10:24:09;;;;;;;12.48;6.85;;;;;;;11.90;54.20;98210.97;5092541;28;20083;-51
2021/12/24 10:26:46;;;;;;;13.13;7.50;;;;;;;11.78;53.37;98203.78;5092603;28;20024;-52
2021/12/24 10:29:21;;;;;;;12.95;7.80;;;;;;;11.91;53.55;98204.69;5092544;28;20039;-52
2021/12/24 10:31:49;;;;;;;11.60;6.30;;;;;;;12.09;55.53;98193.34;5092307;28;20052;-52
2021/12/24 10:34:24;;;;;;;12.95;6.93;;;;;;;12.29;54.55;98191.25;5092483;28;20078;-51
2021/12/24 10:37:01;;;;;;;9.13;6.90;;;;;;;12.52;53.94;98185.28;5092383;28;20449;-52
2021/12/24 10:39:58;;;;;;;10.68;6.03;;;;;;;12.93;55.14;98177.56;5092386;28;20021;-52
2021/12/24 10:42:36;;;;;;;51.80;35.28;;;;;;;13.31;54.13;98174.50;5092337;28;20028;-52
2021/12/24 10:45:07;;;;;;;24.52;9.70;;;;;;;13.36;52.72;98179.06;5092372;28;20435;-51
2021/12/24 10:47:37;;;;;;;11.27;7.32;;;;;;;13.60;54.48;98174.56;5092552;28;20500;-52
2021/12/24 10:50:26;;;;;;;14.23;8.00;;;;;;;13.93;53.01;98159.94;5092302;28;20482;-52
2021/12/24 10:53:14;;;;;;;14.07;7.22;;;;;;;14.19;52.57;98158.56;5092203;28;20024;-52
2021/12/24 10:55:49;;;;;;;17.80;8.82;;;;;;;14.33;53.24;98154.59;5092006;28;20027;-51
2021/12/24 10:58:18;;;;;;;13.38;6.80;;;;;;;14.49;51.27;98150.38;5090694;28;20024;-51
2021/12/24 11:00:48;;;;;;;11.90;8.70;;;;;;;14.42;51.17;98143.63;5092036;28;20020;-52
2021/12/24 11:03:21;;;;;;;11.77;6.00;;;;;;;14.42;53.76;98147.06;5092089;28;20110;-51
2021/12/24 11:06:12;;;;;;;12.73;7.35;;;;;;;14.47;53.99;98136.59;5092051;28;20040;-52
2021/12/24 11:08:40;;;;;;;10.25;8.35;;;;;;;14.63;52.78;98142.16;5080587;28;20401;-49
2021/12/24 11:11:10;;;;;;;11.23;6.25;;;;;;;14.67;53.89;98138.00;5090586;28;20028;-52
2021/12/24 11:13:41;;;;;;;9.93;6.75;;;;;;;14.97;53.75;98124.47;5092015;28;20052;-52
2021/12/24 11:16:10;;;;;;;16.73;8.15;;;;;;;15.10;52.49;98131.25;5091854;28;20035;-52
2021/12/24 11:18:40;;;;;;;14.52;8.00;;;;;;;14.99;52.65;98127.66;5091784;28;20012;-52
2021/12/24 11:21:18;;;;;;;15.30;8.05;;;;;;;14.94;52.04;98124.94;5091787;28;20512;-52
2021/12/24 11:23:44;;;;;;;14.88;7.13;;;;;;;15.05;51.47;98129.34;5091910;28;20100;-51
2021/12/24 11:26:17;;;;;;;11.68;6.95;;;;;;;15.16;51.10;98140.84;5091788;28;20103;-49
2021/12/24 11:28:43;;;;;;;14.15;6.85;;;;;;;15.29;50.46;98139.69;5091838;28;20397;-49
2021/12/24 11:31:13;;;;;;;13.55;7.82;;;;;;;15.39;50.05;98139.81;5091756;28;20027;-49
2021/12/24 11:33:42;;;;;;;10.27;7.22;;;;;;;15.27;49.53;98137.31;5091592;28;20052;-48
2021/12/24 11:36:11;;;;;;;12.13;6.95;;;;;;;15.04;49.31;98126.94;5091755;28;20024;-50
2021/12/24 11:38:40;;;;;;;15.13;8.25;;;;;;;14.65;49.48;98130.31;5091670;28;20414;-52
2021/12/24 11:41:10;;;;;;;13.75;7.97;;;;;;;14.45;50.56;98125.50;5091671;28;20027;-51
2021/12/24 11:43:38;;;;;;;12.18;7.25;;;;;;;14.45;50.76;98129.97;5091764;28;20115;-52
2021/12/24 11:46:08;;;;;;;9.73;7.45;;;;;;;14.49;51.15;98123.19;5091644;28;20020;-51
2021/12/24 11:48:35;;;;;;;16.25;9.10;;;;;;;14.65;51.57;98122.41;5090298;28;20028;-52
2021/12/24 11:51:09;;;;;;;8.90;6.10;;;;;;;14.85;52.93;98124.56;5091551;28;20051;-51
2021/12/24 11:53:37;;;;;;;10.35;6.03;;;;;;;14.90;53.55;98121.97;5090247;28;20375;-51
2021/12/24 11:56:07;;;;;;;8.63;5.70;;;;;;;15.02;53.56;98113.16;5091422;28;20024;-51
2021/12/24 11:58:45;;;;;;;13.90;7.18;;;;;;;15.13;52.14;98109.59;5091434;28;20031;-53
2021/12/24 12:01:14;;;;;;;13.75;7.38;;;;;;;15.26;51.60;98108.47;5091515;28;20081;-52
2021/12/24 12:03:56;;;;;;;10.88;6.65;;;;;;;15.40;52.36;98104.41;5091506;28;20051;-52
2021/12/24 12:06:24;;;;;;;10.45;6.47;;;;;;;15.47;52.18;98109.50;5090215;28;20051;-51
2021/12/24 12:09:12;;;;;;;10.63;6.75;;;;;;;15.48;50.87;98103.97;5094695;28;20051;-49
2021/12/24 12:11:40;;;;;;;11.93;7.80;;;;;;;15.24;51.22;98114.00;5095267;28;20107;-49
2021/12/24 12:14:10;;;;;;;11.00;7.00;;;;;;;14.98;51.38;98108.34;5095177;28;20099;-52
2021/12/24 12:16:38;;;;;;;15.18;7.32;;;;;;;15.06;52.35;98114.28;5093859;28;20379;-51
2021/12/24 12:19:20;;;;;;;11.25;6.80;;;;;;;15.15;52.26;98110.97;5093730;28;20028;-51
2021/12/24 12:22:43;;;;;;;8.07;6.45;;;;;;;15.32;51.55;98103.00;5095133;28;20034;-51
2021/12/24 12:25:12;;;;;;;12.38;6.90;;;;;;;15.44;51.58;98105.53;5071269;28;20101;-52
2021/12/24 12:27:43;;;;;;;8.57;6.32;;;;;;;15.47;52.20;98101.56;5094902;28;20028;-51
2021/12/24 12:30:23;;;;;;;9.23;6.47;;;;;;;15.36;53.07;98090.88;5095130;28;20489;-52
2021/12/24 12:32:52;;;;;;;8.70;5.68;;;;;;;15.35;53.32;98089.28;5093207;28;20054;-49
2021/12/24 12:35:18;;;;;;;12.32;6.32;;;;;;;15.37;54.19;98089.03;5093442;28;20059;-52
2021/12/24 12:37:52;;;;;;;10.48;6.68;;;;;;;15.35;55.38;98077.91;5094660;28;20085;-51
2021/12/24 12:40:18;;;;;;;11.75;8.45;;;;;;;15.28;56.01;98070.16;5093347;28;20076;-52
2021/12/24 12:42:51;;;;;;;12.85;8.68;;;;;;;15.20;56.61;98073.22;5094593;28;20028;-52
2021/12/24 12:45:20;;;;;;;17.05;9.93;;;;;;;15.22;56.69;98068.50;5094564;28;20077;-52
2021/12/24 12:47:58;;;;;;;8.38;6.95;;;;;;;15.30;56.65;98059.34;5094516;28;20405;-52
2021/12/24 12:50:26;;;;;;;12.30;7.20;;;;;;;15.51;56.29;98069.13;5093220;28;20416;-52
2021/12/24 12:53:30;;;;;;;9.82;5.65;;;;;;;15.65;56.17;98055.50;5094430;28;20048;-52
2021/12/24 12:56:10;;;;;;;15.73;9.18;;;;;;;15.48;56.58;98061.66;5094359;28;20020;-49
2021/12/24 12:58:36;;;;;;;8.73;7.03;;;;;;;15.44;56.69;98054.47;5092867;28;20472;-49
2021/12/24 13:01:10;;;;;;;13.15;9.18;;;;;;;15.41;56.91;98052.31;5092875;28;20489;-49
2021/12/24 13:03:57;;;;;;;12.45;6.13;;;;;;;15.46;56.95;98057.69;5094305;28;20438;-49
2021/12/24 13:06:47;;;;;;;13.23;7.95;;;;;;;15.51;57.00;98052.44;5094089;28;20056;-49
2021/12/24 13:09:22;;;;;;;9.20;6.85;;;;;;;15.49;56.98;98046.59;5092797;28;20036;-49
2021/12/24 13:11:54;;;;;;;9.57;6.57;;;;;;;15.55;57.22;98048.25;5094151;28;20024;-49